THA557 VVTS-VTBS
Flight info
| Callsign | THA557 |
|---|---|
| Flight time | N/A |
| Altitude | 38000 |
| Route | SAPEN5K SAPEN R468 ELMOP P629 NUGPA DCT TUMGA TUMGA1C |
| Aircraft | B772/H-SDE2E3FGHIJ5LORVWXY/LB1D1 |
Departure
| Time | 2026-05-06 13:35 |
|---|---|
| Airport | Tan Son Nhat International Airport (VVTS) |
Arrival
| Time | N/A |
|---|---|
| Airport | Suvarnabhumi Airport (VTBS) |
| Time | Latitude | Longitude | Altitude | Speed | Heading |
|---|---|---|---|---|---|
| 2026-05-06 13:03 | 10.81746 | 106.66302 | 41 ft | 0 kts | 162° |
| 2026-05-06 13:25 | 10.81758 | 106.66299 | 39 ft | 3 kts | 162° |
| 2026-05-06 13:26 | 10.81775 | 106.66293 | 40 ft | 3 kts | 162° |
| 2026-05-06 13:26 | 10.81786 | 106.66289 | 37 ft | 3 kts | 162° |
| 2026-05-06 13:26 | 10.81802 | 106.66284 | 41 ft | 3 kts | 162° |
| 2026-05-06 13:26 | 10.81823 | 106.66277 | 39 ft | 0 kts | 162° |
| 2026-05-06 13:30 | 10.81814 | 106.66329 | 41 ft | 9 kts | 45° |
| 2026-05-06 13:30 | 10.81858 | 106.66379 | 42 ft | 10 kts | 58° |
| 2026-05-06 13:31 | 10.81886 | 106.66440 | 40 ft | 10 kts | 68° |
| 2026-05-06 13:31 | 10.81915 | 106.66518 | 41 ft | 15 kts | 70° |
| 2026-05-06 13:31 | 10.81953 | 106.66618 | 41 ft | 15 kts | 69° |
| 2026-05-06 13:31 | 10.81990 | 106.66714 | 41 ft | 12 kts | 68° |
| 2026-05-06 13:32 | 10.82020 | 106.66792 | 41 ft | 11 kts | 68° |
| 2026-05-06 13:32 | 10.82050 | 106.66867 | 41 ft | 11 kts | 68° |
| 2026-05-06 13:32 | 10.82094 | 106.66929 | 41 ft | 11 kts | 29° |
| 2026-05-06 13:32 | 10.82162 | 106.66971 | 42 ft | 11 kts | 32° |
| 2026-05-06 13:33 | 10.82230 | 106.67009 | 43 ft | 10 kts | 13° |
| 2026-05-06 13:33 | 10.82271 | 106.67003 | 43 ft | 0 kts | 341° |
| 2026-05-06 13:33 | 10.82309 | 106.66984 | 44 ft | 10 kts | 322° |
| 2026-05-06 13:34 | 10.82337 | 106.66926 | 44 ft | 7 kts | 284° |
| 2026-05-06 13:34 | 10.82338 | 106.66876 | 44 ft | 7 kts | 261° |
| 2026-05-06 13:34 | 10.82320 | 106.66822 | 42 ft | 17 kts | 249° |
| 2026-05-06 13:34 | 10.82188 | 106.66468 | 42 ft | 95 kts | 249° |
| 2026-05-06 13:35 | 10.81859 | 106.65593 | 43 ft | 168 kts | 250° |
| 2026-05-06 13:35 | 10.81402 | 106.64436 | 740 ft | 171 kts | 247° |
| 2026-05-06 13:35 | 10.80949 | 106.63337 | 1735 ft | 170 kts | 246° |
| 2026-05-06 13:35 | 10.80522 | 106.62142 | 2185 ft | 192 kts | 249° |
| 2026-05-06 13:36 | 10.80034 | 106.60771 | 2421 ft | 221 kts | 248° |
| 2026-05-06 13:36 | 10.79471 | 106.59216 | 2712 ft | 245 kts | 249° |
| 2026-05-06 13:36 | 10.78847 | 106.57497 | 3081 ft | 267 kts | 250° |
| 2026-05-06 13:36 | 10.78554 | 106.55631 | 3680 ft | 274 kts | 279° |
| 2026-05-06 13:37 | 10.79304 | 106.53859 | 4424 ft | 274 kts | 306° |
| 2026-05-06 13:37 | 10.80418 | 106.52253 | 5066 ft | 283 kts | 305° |
| 2026-05-06 13:37 | 10.81520 | 106.50601 | 5954 ft | 283 kts | 304° |
| 2026-05-06 13:37 | 10.82615 | 106.48928 | 6727 ft | 286 kts | 304° |
| 2026-05-06 13:38 | 10.83720 | 106.47224 | 7427 ft | 290 kts | 304° |
| 2026-05-06 13:38 | 10.84832 | 106.45494 | 8173 ft | 294 kts | 304° |
| 2026-05-06 13:38 | 10.85952 | 106.43740 | 8932 ft | 298 kts | 304° |
| 2026-05-06 13:38 | 10.87081 | 106.41963 | 9674 ft | 301 kts | 303° |
| 2026-05-06 13:39 | 10.87557 | 106.41213 | 9937 ft | 303 kts | 304° |
| 2026-05-06 13:39 | 10.88729 | 106.39362 | 10265 ft | 323 kts | 303° |
| 2026-05-06 13:39 | 10.89980 | 106.37384 | 10728 ft | 338 kts | 303° |
| 2026-05-06 13:39 | 10.91254 | 106.35366 | 11408 ft | 348 kts | 303° |
| 2026-05-06 13:40 | 10.92563 | 106.33290 | 12406 ft | 349 kts | 303° |
| 2026-05-06 13:40 | 10.93884 | 106.31192 | 13321 ft | 354 kts | 303° |
| 2026-05-06 13:40 | 10.95218 | 106.29075 | 13788 ft | 358 kts | 303° |
| 2026-05-06 13:40 | 10.96505 | 106.26886 | 14157 ft | 364 kts | 297° |
| 2026-05-06 13:41 | 10.97531 | 106.24518 | 15060 ft | 366 kts | 293° |
| 2026-05-06 13:41 | 10.98513 | 106.22123 | 16016 ft | 368 kts | 293° |
| 2026-05-06 13:41 | 10.99503 | 106.19706 | 16920 ft | 372 kts | 292° |
| 2026-05-06 13:41 | 11.00511 | 106.17251 | 17756 ft | 379 kts | 292° |
| 2026-05-06 13:42 | 11.01536 | 106.14763 | 18530 ft | 384 kts | 293° |
| 2026-05-06 13:42 | 11.02578 | 106.12246 | 19282 ft | 388 kts | 293° |
| 2026-05-06 13:42 | 11.03634 | 106.09699 | 20051 ft | 393 kts | 293° |
| 2026-05-06 13:42 | 11.04704 | 106.07121 | 20818 ft | 397 kts | 293° |
| 2026-05-06 13:43 | 11.05786 | 106.04519 | 21605 ft | 402 kts | 293° |
| 2026-05-06 13:43 | 11.06881 | 106.01884 | 22359 ft | 407 kts | 293° |
| 2026-05-06 13:43 | 11.07991 | 105.99217 | 23085 ft | 412 kts | 293° |
| 2026-05-06 13:43 | 11.09114 | 105.96516 | 23797 ft | 415 kts | 293° |
| 2026-05-06 13:44 | 11.10245 | 105.93794 | 24429 ft | 420 kts | 293° |
| 2026-05-06 13:44 | 11.11388 | 105.91045 | 25076 ft | 423 kts | 293° |
| 2026-05-06 13:44 | 11.12523 | 105.88313 | 25746 ft | 426 kts | 293° |
| 2026-05-06 13:44 | 11.13685 | 105.85515 | 26340 ft | 432 kts | 293° |
| 2026-05-06 13:45 | 11.14878 | 105.82642 | 26924 ft | 437 kts | 293° |
| 2026-05-06 13:45 | 11.17250 | 105.76924 | 28171 ft | 445 kts | 293° |
| 2026-05-06 13:45 | 11.18458 | 105.74006 | 28765 ft | 449 kts | 293° |
| 2026-05-06 13:46 | 11.19676 | 105.71065 | 29365 ft | 453 kts | 293° |
| 2026-05-06 13:46 | 11.20905 | 105.68096 | 29894 ft | 457 kts | 293° |
| 2026-05-06 13:46 | 11.22146 | 105.65101 | 30377 ft | 460 kts | 293° |
| 2026-05-06 13:46 | 11.23392 | 105.62092 | 30870 ft | 462 kts | 293° |
| 2026-05-06 13:47 | 11.24643 | 105.59071 | 31364 ft | 464 kts | 293° |
| 2026-05-06 13:47 | 11.25898 | 105.56038 | 31827 ft | 466 kts | 293° |
| 2026-05-06 13:47 | 11.27159 | 105.52993 | 32259 ft | 468 kts | 293° |
| 2026-05-06 13:47 | 11.28427 | 105.49928 | 32677 ft | 471 kts | 293° |
| 2026-05-06 13:48 | 11.29701 | 105.46847 | 33090 ft | 473 kts | 293° |
| 2026-05-06 13:48 | 11.30981 | 105.43752 | 33476 ft | 475 kts | 293° |
| 2026-05-06 13:48 | 11.32268 | 105.40640 | 33847 ft | 477 kts | 293° |
| 2026-05-06 13:48 | 11.33559 | 105.37515 | 34161 ft | 479 kts | 293° |
| 2026-05-06 13:49 | 11.34851 | 105.34386 | 34542 ft | 479 kts | 293° |
| 2026-05-06 13:49 | 11.36141 | 105.31262 | 34993 ft | 477 kts | 292° |
| 2026-05-06 13:49 | 11.37427 | 105.28145 | 35405 ft | 477 kts | 292° |
| 2026-05-06 13:49 | 11.38708 | 105.25042 | 35907 ft | 474 kts | 292° |
| 2026-05-06 13:50 | 11.39987 | 105.21941 | 36312 ft | 474 kts | 292° |
| 2026-05-06 13:50 | 11.41264 | 105.18845 | 36783 ft | 472 kts | 292° |
| 2026-05-06 13:50 | 11.42531 | 105.15769 | 37285 ft | 470 kts | 292° |
| 2026-05-06 13:50 | 11.43798 | 105.12696 | 37760 ft | 468 kts | 292° |
| 2026-05-06 13:51 | 11.46340 | 105.06522 | 37833 ft | 474 kts | 292° |
| 2026-05-06 13:51 | 11.48872 | 105.00369 | 37822 ft | 468 kts | 292° |
| 2026-05-06 13:52 | 11.51370 | 104.94295 | 37833 ft | 467 kts | 292° |
| 2026-05-06 13:52 | 11.53879 | 104.88192 | 37834 ft | 466 kts | 292° |
| 2026-05-06 13:53 | 11.56382 | 104.82096 | 37832 ft | 466 kts | 292° |
| 2026-05-06 13:53 | 11.58885 | 104.75997 | 37833 ft | 467 kts | 292° |
| 2026-05-06 13:54 | 11.61389 | 104.69892 | 37833 ft | 467 kts | 292° |
| 2026-05-06 13:54 | 11.63892 | 104.63784 | 37827 ft | 467 kts | 292° |
| 2026-05-06 13:55 | 11.66396 | 104.57671 | 37828 ft | 467 kts | 292° |
| 2026-05-06 13:55 | 11.68899 | 104.51558 | 37836 ft | 467 kts | 292° |
| 2026-05-06 13:56 | 11.71398 | 104.45448 | 37829 ft | 466 kts | 292° |
| 2026-05-06 13:56 | 11.73874 | 104.39389 | 37833 ft | 465 kts | 291° |
| 2026-05-06 13:57 | 11.76350 | 104.33324 | 37833 ft | 466 kts | 292° |
| 2026-05-06 13:57 | 11.78844 | 104.27215 | 37832 ft | 466 kts | 292° |
| 2026-05-06 13:58 | 11.81333 | 104.21111 | 37833 ft | 466 kts | 292° |
| 2026-05-06 13:58 | 11.83823 | 104.15002 | 37841 ft | 466 kts | 292° |
| 2026-05-06 13:59 | 11.86312 | 104.08890 | 37846 ft | 466 kts | 291° |
| 2026-05-06 13:59 | 11.88803 | 104.02767 | 37856 ft | 467 kts | 291° |
| 2026-05-06 14:00 | 11.91474 | 103.96723 | 37849 ft | 467 kts | 298° |
| 2026-05-06 14:00 | 11.94893 | 103.91066 | 37849 ft | 468 kts | 302° |
| 2026-05-06 14:01 | 11.98372 | 103.85450 | 37867 ft | 468 kts | 301° |
| 2026-05-06 14:01 | 12.01800 | 103.79864 | 37851 ft | 467 kts | 301° |
| 2026-05-06 14:02 | 12.05231 | 103.74228 | 37866 ft | 467 kts | 301° |
| 2026-05-06 14:02 | 12.08653 | 103.68589 | 37859 ft | 468 kts | 301° |
| 2026-05-06 14:03 | 12.12090 | 103.62924 | 37881 ft | 470 kts | 301° |
| 2026-05-06 14:03 | 12.15540 | 103.57234 | 37857 ft | 471 kts | 301° |
| 2026-05-06 14:04 | 12.18997 | 103.51534 | 37868 ft | 472 kts | 301° |
| 2026-05-06 14:04 | 12.22459 | 103.45820 | 37864 ft | 473 kts | 300° |
| 2026-05-06 14:05 | 12.25928 | 103.40091 | 37871 ft | 474 kts | 300° |
| 2026-05-06 14:05 | 12.29396 | 103.34361 | 37880 ft | 474 kts | 300° |
| 2026-05-06 14:06 | 12.32868 | 103.28621 | 37858 ft | 474 kts | 300° |
| 2026-05-06 14:06 | 12.36333 | 103.22887 | 37857 ft | 474 kts | 300° |
| 2026-05-06 14:07 | 12.39797 | 103.17153 | 37861 ft | 473 kts | 300° |
| 2026-05-06 14:07 | 12.43255 | 103.11426 | 37871 ft | 472 kts | 301° |
| 2026-05-06 14:08 | 12.46697 | 103.05721 | 37851 ft | 470 kts | 300° |
| 2026-05-06 14:08 | 12.50122 | 103.00041 | 37847 ft | 468 kts | 300° |
| 2026-05-06 14:09 | 12.53506 | 102.94425 | 37849 ft | 466 kts | 300° |
| 2026-05-06 14:09 | 12.56907 | 102.88777 | 37852 ft | 465 kts | 300° |
| 2026-05-06 14:10 | 12.60302 | 102.83135 | 37853 ft | 465 kts | 300° |
| 2026-05-06 14:10 | 12.63700 | 102.77486 | 37844 ft | 466 kts | 300° |
| 2026-05-06 14:11 | 12.67098 | 102.71832 | 37848 ft | 466 kts | 300° |
| 2026-05-06 14:11 | 12.70494 | 102.66179 | 37842 ft | 466 kts | 300° |
| 2026-05-06 14:12 | 12.73887 | 102.60525 | 37850 ft | 465 kts | 300° |
| 2026-05-06 14:12 | 12.77274 | 102.54873 | 37847 ft | 466 kts | 300° |
| 2026-05-06 14:13 | 12.80053 | 102.48908 | 37845 ft | 464 kts | 290° |
| 2026-05-06 14:13 | 12.82338 | 102.42727 | 37849 ft | 464 kts | 290° |
| 2026-05-06 14:14 | 12.83480 | 102.39650 | 37711 ft | 460 kts | 290° |
| 2026-05-06 14:14 | 12.84626 | 102.36594 | 37289 ft | 457 kts | 290° |
| 2026-05-06 14:14 | 12.85770 | 102.33569 | 36878 ft | 453 kts | 290° |
| 2026-05-06 14:14 | 12.86905 | 102.30575 | 36461 ft | 449 kts | 290° |
| 2026-05-06 14:15 | 12.88032 | 102.27604 | 36045 ft | 445 kts | 290° |
| 2026-05-06 14:15 | 12.89147 | 102.24658 | 35629 ft | 442 kts | 290° |
| 2026-05-06 14:15 | 12.90254 | 102.21733 | 35196 ft | 439 kts | 291° |
| 2026-05-06 14:15 | 12.91358 | 102.18821 | 34759 ft | 437 kts | 291° |
| 2026-05-06 14:16 | 12.92442 | 102.15964 | 34318 ft | 435 kts | 291° |
| 2026-05-06 14:16 | 12.93536 | 102.13079 | 33869 ft | 433 kts | 291° |
| 2026-05-06 14:16 | 12.94627 | 102.10202 | 33390 ft | 431 kts | 291° |
| 2026-05-06 14:16 | 12.95709 | 102.07346 | 32922 ft | 429 kts | 291° |
| 2026-05-06 14:17 | 12.96786 | 102.04502 | 32470 ft | 426 kts | 291° |
| 2026-05-06 14:17 | 12.97857 | 102.01676 | 32035 ft | 424 kts | 291° |
| 2026-05-06 14:17 | 12.98562 | 101.99812 | 31745 ft | 422 kts | 291° |
| 2026-05-06 14:17 | 12.99621 | 101.97010 | 31314 ft | 420 kts | 291° |
| 2026-05-06 14:18 | 13.00674 | 101.94224 | 30894 ft | 418 kts | 291° |
| 2026-05-06 14:18 | 13.01721 | 101.91453 | 30465 ft | 416 kts | 291° |
| 2026-05-06 14:18 | 13.02766 | 101.88688 | 30023 ft | 415 kts | 292° |
| 2026-05-06 14:18 | 13.03806 | 101.85935 | 29538 ft | 414 kts | 291° |
| 2026-05-06 14:19 | 13.04859 | 101.83197 | 29058 ft | 411 kts | 294° |
| 2026-05-06 14:19 | 13.06079 | 101.80551 | 28579 ft | 409 kts | 297° |
| 2026-05-06 14:19 | 13.07351 | 101.77945 | 28119 ft | 408 kts | 297° |
| 2026-05-06 14:19 | 13.08625 | 101.75355 | 27670 ft | 406 kts | 298° |
| 2026-05-06 14:20 | 13.09895 | 101.72772 | 27225 ft | 405 kts | 297° |
| 2026-05-06 14:20 | 13.11158 | 101.70192 | 26771 ft | 404 kts | 297° |
| 2026-05-06 14:20 | 13.12415 | 101.67616 | 26322 ft | 403 kts | 297° |
| 2026-05-06 14:20 | 13.13665 | 101.65045 | 25883 ft | 402 kts | 297° |
| 2026-05-06 14:21 | 13.14912 | 101.62476 | 25425 ft | 402 kts | 297° |
| 2026-05-06 14:21 | 13.16157 | 101.59907 | 24969 ft | 402 kts | 297° |
| 2026-05-06 14:21 | 13.17399 | 101.57344 | 24523 ft | 402 kts | 297° |
| 2026-05-06 14:21 | 13.18645 | 101.54774 | 24083 ft | 402 kts | 297° |
| 2026-05-06 14:22 | 13.19886 | 101.52209 | 23645 ft | 402 kts | 297° |
| 2026-05-06 14:22 | 13.21131 | 101.49637 | 23146 ft | 402 kts | 297° |
| 2026-05-06 14:22 | 13.22376 | 101.47066 | 22652 ft | 401 kts | 297° |
| 2026-05-06 14:22 | 13.23612 | 101.44510 | 22184 ft | 399 kts | 297° |
| 2026-05-06 14:23 | 13.24828 | 101.41995 | 21738 ft | 398 kts | 297° |
| 2026-05-06 14:23 | 13.26054 | 101.39458 | 21301 ft | 396 kts | 297° |
| 2026-05-06 14:23 | 13.27277 | 101.36928 | 20837 ft | 395 kts | 297° |
| 2026-05-06 14:23 | 13.28496 | 101.34406 | 20372 ft | 394 kts | 297° |
| 2026-05-06 14:24 | 13.29712 | 101.31888 | 19938 ft | 393 kts | 297° |
| 2026-05-06 14:24 | 13.30925 | 101.29375 | 19479 ft | 393 kts | 297° |
| 2026-05-06 14:24 | 13.32138 | 101.26862 | 19022 ft | 392 kts | 298° |
| 2026-05-06 14:24 | 13.33351 | 101.24354 | 18565 ft | 390 kts | 298° |
| 2026-05-06 14:25 | 13.34857 | 101.22110 | 18121 ft | 379 kts | 318° |
| 2026-05-06 14:25 | 13.36986 | 101.20623 | 17866 ft | 366 kts | 335° |
| 2026-05-06 14:25 | 13.39387 | 101.19790 | 17302 ft | 363 kts | 351° |
| 2026-05-06 14:25 | 13.41884 | 101.19565 | 16894 ft | 357 kts | 358° |
| 2026-05-06 14:26 | 13.44352 | 101.19451 | 16506 ft | 353 kts | 358° |
| 2026-05-06 14:26 | 13.46788 | 101.19325 | 16130 ft | 349 kts | 358° |
| 2026-05-06 14:26 | 13.49198 | 101.19178 | 15771 ft | 345 kts | 358° |
| 2026-05-06 14:26 | 13.51580 | 101.19023 | 15403 ft | 341 kts | 357° |
| 2026-05-06 14:27 | 13.53904 | 101.18752 | 15041 ft | 332 kts | 346° |
| 2026-05-06 14:27 | 13.55958 | 101.17701 | 14712 ft | 331 kts | 322° |
| 2026-05-06 14:27 | 13.57499 | 101.15965 | 14382 ft | 329 kts | 304° |
| 2026-05-06 14:27 | 13.58463 | 101.13852 | 14030 ft | 327 kts | 287° |
| 2026-05-06 14:28 | 13.59037 | 101.11600 | 13690 ft | 325 kts | 284° |
| 2026-05-06 14:28 | 13.59584 | 101.09354 | 13312 ft | 323 kts | 284° |
| 2026-05-06 14:28 | 13.60139 | 101.07155 | 12961 ft | 320 kts | 285° |
| 2026-05-06 14:28 | 13.60709 | 101.04950 | 12625 ft | 319 kts | 285° |
| 2026-05-06 14:29 | 13.61283 | 101.02755 | 12285 ft | 317 kts | 285° |
| 2026-05-06 14:29 | 13.61853 | 101.00582 | 11956 ft | 313 kts | 285° |
| 2026-05-06 14:29 | 13.62419 | 100.98429 | 11639 ft | 310 kts | 285° |
| 2026-05-06 14:29 | 13.62973 | 100.96319 | 11462 ft | 307 kts | 285° |
| 2026-05-06 14:30 | 13.63528 | 100.94205 | 11127 ft | 312 kts | 285° |
| 2026-05-06 14:30 | 13.64092 | 100.92055 | 10786 ft | 311 kts | 285° |
| 2026-05-06 14:30 | 13.64655 | 100.89910 | 10459 ft | 309 kts | 285° |
| 2026-05-06 14:30 | 13.65106 | 100.87783 | 10122 ft | 300 kts | 272° |
| 2026-05-06 14:31 | 13.64761 | 100.85701 | 9816 ft | 295 kts | 245° |
| 2026-05-06 14:31 | 13.63602 | 100.83998 | 9495 ft | 290 kts | 222° |
| 2026-05-06 14:31 | 13.61983 | 100.82812 | 9162 ft | 284 kts | 204° |
| 2026-05-06 14:31 | 13.60120 | 100.82191 | 8880 ft | 280 kts | 193° |
| 2026-05-06 14:32 | 13.58239 | 100.81700 | 8576 ft | 278 kts | 193° |
| 2026-05-06 14:32 | 13.56370 | 100.81214 | 8283 ft | 275 kts | 193° |
| 2026-05-06 14:32 | 13.54522 | 100.80730 | 7995 ft | 274 kts | 193° |
| 2026-05-06 14:32 | 13.52683 | 100.80237 | 7706 ft | 272 kts | 192° |
| 2026-05-06 14:33 | 13.50857 | 100.79741 | 7427 ft | 270 kts | 192° |
| 2026-05-06 14:33 | 13.49045 | 100.79248 | 7137 ft | 269 kts | 192° |
| 2026-05-06 14:33 | 13.47242 | 100.78757 | 6866 ft | 267 kts | 192° |
| 2026-05-06 14:33 | 13.45450 | 100.78267 | 6585 ft | 266 kts | 193° |
| 2026-05-06 14:34 | 13.43738 | 100.77580 | 5990 ft | 272 kts | 214° |
| 2026-05-06 14:34 | 13.42556 | 100.76020 | 5301 ft | 288 kts | 249° |
| 2026-05-06 14:34 | 13.42350 | 100.73967 | 4696 ft | 296 kts | 279° |
| 2026-05-06 14:34 | 13.43092 | 100.72021 | 4414 ft | 290 kts | 305° |
| 2026-05-06 14:35 | 13.44479 | 100.70583 | 4077 ft | 285 kts | 328° |
| 2026-05-06 14:35 | 13.46265 | 100.69966 | 3677 ft | 261 kts | 359° |
| 2026-05-06 14:35 | 13.47945 | 100.70287 | 3381 ft | 234 kts | 23° |
| 2026-05-06 14:35 | 13.49410 | 100.70859 | 3104 ft | 217 kts | 20° |
| 2026-05-06 14:36 | 13.50816 | 100.71267 | 2848 ft | 203 kts | 16° |